sensor_id;sensor_type;location;lat;lon;timestamp;temperature;humidity
15656;DHT22;7928;43.614;1.456;2023-09-07T00:01:35;22.90;73.70
15656;DHT22;7928;43.614;1.456;2023-09-07T00:04:02;22.90;73.60
15656;DHT22;7928;43.614;1.456;2023-09-07T00:06:31;22.90;74.00
15656;DHT22;7928;43.614;1.456;2023-09-07T00:09:00;22.90;73.90
15656;DHT22;7928;43.614;1.456;2023-09-07T00:11:27;22.90;74.20
15656;DHT22;7928;43.614;1.456;2023-09-07T00:13:53;22.90;74.50
15656;DHT22;7928;43.614;1.456;2023-09-07T00:16:22;22.90;74.90
15656;DHT22;7928;43.614;1.456;2023-09-07T00:18:49;22.90;76.10
15656;DHT22;7928;43.614;1.456;2023-09-07T00:21:16;22.80;76.50
15656;DHT22;7928;43.614;1.456;2023-09-07T00:23:43;22.80;77.00
15656;DHT22;7928;43.614;1.456;2023-09-07T00:26:10;22.80;77.80
15656;DHT22;7928;43.614;1.456;2023-09-07T00:28:38;22.70;77.80
15656;DHT22;7928;43.614;1.456;2023-09-07T00:31:05;22.60;78.20
15656;DHT22;7928;43.614;1.456;2023-09-07T00:33:33;22.60;78.90
15656;DHT22;7928;43.614;1.456;2023-09-07T00:36:01;22.50;79.10
15656;DHT22;7928;43.614;1.456;2023-09-07T00:38:28;22.50;79.30
15656;DHT22;7928;43.614;1.456;2023-09-07T00:40:55;22.50;79.70
15656;DHT22;7928;43.614;1.456;2023-09-07T00:43:23;22.50;79.80
15656;DHT22;7928;43.614;1.456;2023-09-07T00:45:50;22.50;80.10
15656;DHT22;7928;43.614;1.456;2023-09-07T00:48:17;22.50;80.10
15656;DHT22;7928;43.614;1.456;2023-09-07T00:50:45;22.50;80.60
15656;DHT22;7928;43.614;1.456;2023-09-07T00:53:13;22.40;80.60
15656;DHT22;7928;43.614;1.456;2023-09-07T00:55:41;22.40;81.00
15656;DHT22;7928;43.614;1.456;2023-09-07T00:58:08;22.30;81.10
15656;DHT22;7928;43.614;1.456;2023-09-07T01:00:37;22.20;81.40
15656;DHT22;7928;43.614;1.456;2023-09-07T01:03:05;22.20;82.00
15656;DHT22;7928;43.614;1.456;2023-09-07T01:05:35;22.20;81.60
15656;DHT22;7928;43.614;1.456;2023-09-07T01:08:11;22.20;81.50
15656;DHT22;7928;43.614;1.456;2023-09-07T01:10:41;22.20;81.30
15656;DHT22;7928;43.614;1.456;2023-09-07T01:13:08;22.10;81.10
15656;DHT22;7928;43.614;1.456;2023-09-07T01:15:35;22.10;81.00
15656;DHT22;7928;43.614;1.456;2023-09-07T01:18:04;22.10;81.30
15656;DHT22;7928;43.614;1.456;2023-09-07T01:20:32;22.10;81.70
15656;DHT22;7928;43.614;1.456;2023-09-07T01:23:02;22.10;81.50
15656;DHT22;7928;43.614;1.456;2023-09-07T01:25:30;22.00;81.40
15656;DHT22;7928;43.614;1.456;2023-09-07T01:27:58;22.00;81.40
15656;DHT22;7928;43.614;1.456;2023-09-07T01:30:27;22.00;81.40
15656;DHT22;7928;43.614;1.456;2023-09-07T01:32:54;22.00;81.50
15656;DHT22;7928;43.614;1.456;2023-09-07T01:35:21;21.90;81.10
15656;DHT22;7928;43.614;1.456;2023-09-07T01:37:49;22.00;80.80
15656;DHT22;7928;43.614;1.456;2023-09-07T01:40:18;22.00;80.90
15656;DHT22;7928;43.614;1.456;2023-09-07T01:42:44;22.00;80.40
15656;DHT22;7928;43.614;1.456;2023-09-07T01:45:11;22.00;80.10
15656;DHT22;7928;43.614;1.456;2023-09-07T01:47:38;22.00;80.40
15656;DHT22;7928;43.614;1.456;2023-09-07T01:50:06;22.00;80.10
15656;DHT22;7928;43.614;1.456;2023-09-07T01:52:33;21.90;80.20
15656;DHT22;7928;43.614;1.456;2023-09-07T01:55:00;21.90;80.80
15656;DHT22;7928;43.614;1.456;2023-09-07T01:57:28;21.90;81.00
15656;DHT22;7928;43.614;1.456;2023-09-07T01:59:55;21.90;80.90
15656;DHT22;7928;43.614;1.456;2023-09-07T02:02:22;21.80;80.80
15656;DHT22;7928;43.614;1.456;2023-09-07T02:04:49;21.80;80.90
15656;DHT22;7928;43.614;1.456;2023-09-07T02:07:16;21.80;80.80
15656;DHT22;7928;43.614;1.456;2023-09-07T02:09:43;21.80;81.10
15656;DHT22;7928;43.614;1.456;2023-09-07T02:12:10;21.80;81.20
15656;DHT22;7928;43.614;1.456;2023-09-07T02:14:38;21.80;81.20
15656;DHT22;7928;43.614;1.456;2023-09-07T02:17:05;21.70;81.60
15656;DHT22;7928;43.614;1.456;2023-09-07T02:19:33;21.70;81.50
15656;DHT22;7928;43.614;1.456;2023-09-07T02:22:01;21.60;81.80
15656;DHT22;7928;43.614;1.456;2023-09-07T02:24:28;21.60;82.00
15656;DHT22;7928;43.614;1.456;2023-09-07T02:26:55;21.70;81.80
15656;DHT22;7928;43.614;1.456;2023-09-07T02:29:22;21.60;82.00
15656;DHT22;7928;43.614;1.456;2023-09-07T02:31:51;21.60;82.00
15656;DHT22;7928;43.614;1.456;2023-09-07T02:34:18;21.60;82.30
15656;DHT22;7928;43.614;1.456;2023-09-07T02:36:45;21.60;81.80
15656;DHT22;7928;43.614;1.456;2023-09-07T02:39:11;21.60;82.30
15656;DHT22;7928;43.614;1.456;2023-09-07T02:41:39;21.60;82.00
15656;DHT22;7928;43.614;1.456;2023-09-07T02:44:06;21.60;82.70
15656;DHT22;7928;43.614;1.456;2023-09-07T02:46:33;21.50;83.40
15656;DHT22;7928;43.614;1.456;2023-09-07T02:49:01;21.50;82.30
15656;DHT22;7928;43.614;1.456;2023-09-07T02:51:29;21.50;82.50
15656;DHT22;7928;43.614;1.456;2023-09-07T02:53:56;21.40;82.30
15656;DHT22;7928;43.614;1.456;2023-09-07T02:56:24;21.40;82.20
15656;DHT22;7928;43.614;1.456;2023-09-07T02:58:51;21.30;83.30
15656;DHT22;7928;43.614;1.456;2023-09-07T03:01:18;21.30;82.10
15656;DHT22;7928;43.614;1.456;2023-09-07T03:03:47;21.40;82.40
15656;DHT22;7928;43.614;1.456;2023-09-07T03:06:16;21.40;82.20
15656;DHT22;7928;43.614;1.456;2023-09-07T03:08:43;21.40;82.70
15656;DHT22;7928;43.614;1.456;2023-09-07T03:11:10;21.40;83.30
15656;DHT22;7928;43.614;1.456;2023-09-07T03:13:38;21.40;83.30
15656;DHT22;7928;43.614;1.456;2023-09-07T03:16:05;21.40;83.20
15656;DHT22;7928;43.614;1.456;2023-09-07T03:18:32;21.40;83.50
15656;DHT22;7928;43.614;1.456;2023-09-07T03:21:01;21.30;83.50
15656;DHT22;7928;43.614;1.456;2023-09-07T03:23:32;21.30;84.00
15656;DHT22;7928;43.614;1.456;2023-09-07T03:25:59;21.20;84.50
15656;DHT22;7928;43.614;1.456;2023-09-07T03:28:26;21.20;84.80
15656;DHT22;7928;43.614;1.456;2023-09-07T03:30:54;21.20;84.80
15656;DHT22;7928;43.614;1.456;2023-09-07T03:33:22;21.20;83.60
15656;DHT22;7928;43.614;1.456;2023-09-07T03:35:49;21.20;84.70
15656;DHT22;7928;43.614;1.456;2023-09-07T03:38:17;21.20;84.40
15656;DHT22;7928;43.614;1.456;2023-09-07T03:40:45;21.20;84.50
15656;DHT22;7928;43.614;1.456;2023-09-07T03:43:12;21.20;85.60
15656;DHT22;7928;43.614;1.456;2023-09-07T03:45:39;21.10;84.90
15656;DHT22;7928;43.614;1.456;2023-09-07T03:48:06;21.10;84.90
15656;DHT22;7928;43.614;1.456;2023-09-07T03:50:35;21.10;84.90
15656;DHT22;7928;43.614;1.456;2023-09-07T03:53:02;21.10;85.30
15656;DHT22;7928;43.614;1.456;2023-09-07T03:55:30;21.00;85.50
15656;DHT22;7928;43.614;1.456;2023-09-07T03:57:58;21.10;86.20
15656;DHT22;7928;43.614;1.456;2023-09-07T04:00:25;21.10;86.30
15656;DHT22;7928;43.614;1.456;2023-09-07T04:02:52;21.00;86.40
15656;DHT22;7928;43.614;1.456;2023-09-07T04:05:19;21.00;86.70
15656;DHT22;7928;43.614;1.456;2023-09-07T04:07:50;21.00;86.80
15656;DHT22;7928;43.614;1.456;2023-09-07T04:10:17;20.90;87.10
15656;DHT22;7928;43.614;1.456;2023-09-07T04:12:45;20.90;86.90
15656;DHT22;7928;43.614;1.456;2023-09-07T04:15:14;21.00;86.70
15656;DHT22;7928;43.614;1.456;2023-09-07T04:17:41;21.00;86.90
15656;DHT22;7928;43.614;1.456;2023-09-07T04:20:09;20.90;86.80
15656;DHT22;7928;43.614;1.456;2023-09-07T04:22:38;20.90;86.10
15656;DHT22;7928;43.614;1.456;2023-09-07T04:25:05;20.90;85.80
15656;DHT22;7928;43.614;1.456;2023-09-07T04:27:32;20.90;85.50
15656;DHT22;7928;43.614;1.456;2023-09-07T04:30:00;20.90;85.00
15656;DHT22;7928;43.614;1.456;2023-09-07T04:32:28;21.00;84.70
15656;DHT22;7928;43.614;1.456;2023-09-07T04:34:55;21.00;84.70
15656;DHT22;7928;43.614;1.456;2023-09-07T04:37:22;21.00;84.90
15656;DHT22;7928;43.614;1.456;2023-09-07T04:39:52;21.00;84.80
15656;DHT22;7928;43.614;1.456;2023-09-07T04:42:19;21.00;84.80
15656;DHT22;7928;43.614;1.456;2023-09-07T04:44:46;21.00;84.80
15656;DHT22;7928;43.614;1.456;2023-09-07T04:47:14;21.00;84.80
15656;DHT22;7928;43.614;1.456;2023-09-07T04:49:47;21.00;84.70
15656;DHT22;7928;43.614;1.456;2023-09-07T04:52:15;21.00;84.50
15656;DHT22;7928;43.614;1.456;2023-09-07T04:54:42;21.00;84.30
15656;DHT22;7928;43.614;1.456;2023-09-07T04:57:09;20.90;84.30
15656;DHT22;7928;43.614;1.456;2023-09-07T04:59:36;20.90;84.70
15656;DHT22;7928;43.614;1.456;2023-09-07T05:02:03;20.90;85.00
15656;DHT22;7928;43.614;1.456;2023-09-07T05:04:30;20.90;85.20
15656;DHT22;7928;43.614;1.456;2023-09-07T05:06:59;20.90;85.80
15656;DHT22;7928;43.614;1.456;2023-09-07T05:09:26;20.80;86.60
15656;DHT22;7928;43.614;1.456;2023-09-07T05:11:55;20.80;87.00
15656;DHT22;7928;43.614;1.456;2023-09-07T05:14:22;20.70;87.70
15656;DHT22;7928;43.614;1.456;2023-09-07T05:16:50;20.70;88.10
15656;DHT22;7928;43.614;1.456;2023-09-07T05:19:17;20.70;88.40
15656;DHT22;7928;43.614;1.456;2023-09-07T05:21:44;20.70;88.40
15656;DHT22;7928;43.614;1.456;2023-09-07T05:24:13;20.70;87.60
15656;DHT22;7928;43.614;1.456;2023-09-07T05:26:41;20.80;87.70
15656;DHT22;7928;43.614;1.456;2023-09-07T05:29:08;20.80;87.70
15656;DHT22;7928;43.614;1.456;2023-09-07T05:31:35;20.80;88.40
15656;DHT22;7928;43.614;1.456;2023-09-07T05:34:03;20.80;88.40
15656;DHT22;7928;43.614;1.456;2023-09-07T05:36:30;20.80;88.30
15656;DHT22;7928;43.614;1.456;2023-09-07T05:38:57;20.80;87.40
15656;DHT22;7928;43.614;1.456;2023-09-07T05:41:26;20.70;86.50
15656;DHT22;7928;43.614;1.456;2023-09-07T05:43:53;20.80;85.80
15656;DHT22;7928;43.614;1.456;2023-09-07T05:46:20;20.70;85.70
15656;DHT22;7928;43.614;1.456;2023-09-07T05:48:47;20.70;85.80
15656;DHT22;7928;43.614;1.456;2023-09-07T05:51:14;20.80;86.00
15656;DHT22;7928;43.614;1.456;2023-09-07T05:53:41;20.80;85.90
15656;DHT22;7928;43.614;1.456;2023-09-07T05:56:08;20.80;85.80
15656;DHT22;7928;43.614;1.456;2023-09-07T05:58:36;20.70;85.90
15656;DHT22;7928;43.614;1.456;2023-09-07T06:01:03;20.70;86.30
15656;DHT22;7928;43.614;1.456;2023-09-07T06:03:31;20.70;86.20
15656;DHT22;7928;43.614;1.456;2023-09-07T06:06:00;20.80;86.40
15656;DHT22;7928;43.614;1.456;2023-09-07T06:08:28;21.00;86.70
15656;DHT22;7928;43.614;1.456;2023-09-07T06:10:55;21.00;86.70
15656;DHT22;7928;43.614;1.456;2023-09-07T06:13:22;21.10;86.40
15656;DHT22;7928;43.614;1.456;2023-09-07T06:15:50;21.10;86.50
15656;DHT22;7928;43.614;1.456;2023-09-07T06:18:17;21.10;86.30
15656;DHT22;7928;43.614;1.456;2023-09-07T06:20:44;21.20;86.70
15656;DHT22;7928;43.614;1.456;2023-09-07T06:23:12;21.30;87.00
15656;DHT22;7928;43.614;1.456;2023-09-07T06:25:39;21.40;86.30
15656;DHT22;7928;43.614;1.456;2023-09-07T06:28:06;21.40;86.10
15656;DHT22;7928;43.614;1.456;2023-09-07T06:30:33;21.40;85.90
15656;DHT22;7928;43.614;1.456;2023-09-07T06:33:02;21.50;85.50
15656;DHT22;7928;43.614;1.456;2023-09-07T06:35:29;21.40;85.40
15656;DHT22;7928;43.614;1.456;2023-09-07T06:37:56;21.50;85.50
15656;DHT22;7928;43.614;1.456;2023-09-07T06:40:23;21.50;85.10
15656;DHT22;7928;43.614;1.456;2023-09-07T06:42:51;21.60;85.20
15656;DHT22;7928;43.614;1.456;2023-09-07T06:45:18;21.60;84.70
15656;DHT22;7928;43.614;1.456;2023-09-07T06:47:45;21.60;84.70
15656;DHT22;7928;43.614;1.456;2023-09-07T06:50:13;21.60;84.90
15656;DHT22;7928;43.614;1.456;2023-09-07T06:52:40;21.70;85.20
15656;DHT22;7928;43.614;1.456;2023-09-07T06:55:07;21.80;84.60
15656;DHT22;7928;43.614;1.456;2023-09-07T06:57:35;21.90;84.40
15656;DHT22;7928;43.614;1.456;2023-09-07T07:00:02;21.90;84.30
15656;DHT22;7928;43.614;1.456;2023-09-07T07:02:31;22.00;84.40
15656;DHT22;7928;43.614;1.456;2023-09-07T07:04:58;22.10;84.30
15656;DHT22;7928;43.614;1.456;2023-09-07T07:07:26;22.20;83.80
15656;DHT22;7928;43.614;1.456;2023-09-07T07:09:53;22.20;83.80
15656;DHT22;7928;43.614;1.456;2023-09-07T07:12:20;22.40;83.20
15656;DHT22;7928;43.614;1.456;2023-09-07T07:14:47;22.40;82.90
15656;DHT22;7928;43.614;1.456;2023-09-07T07:17:14;22.50;82.20
15656;DHT22;7928;43.614;1.456;2023-09-07T07:19:41;22.60;82.30
15656;DHT22;7928;43.614;1.456;2023-09-07T07:22:08;22.60;81.60
15656;DHT22;7928;43.614;1.456;2023-09-07T07:24:37;22.80;81.80
15656;DHT22;7928;43.614;1.456;2023-09-07T07:27:04;22.90;80.80
15656;DHT22;7928;43.614;1.456;2023-09-07T07:29:31;23.00;80.20
15656;DHT22;7928;43.614;1.456;2023-09-07T07:31:57;23.10;80.20
15656;DHT22;7928;43.614;1.456;2023-09-07T07:34:25;23.20;79.20
15656;DHT22;7928;43.614;1.456;2023-09-07T07:36:52;23.30;78.80
15656;DHT22;7928;43.614;1.456;2023-09-07T07:39:19;23.40;78.20
15656;DHT22;7928;43.614;1.456;2023-09-07T07:41:47;23.50;77.80
15656;DHT22;7928;43.614;1.456;2023-09-07T07:44:14;23.60;77.50
15656;DHT22;7928;43.614;1.456;2023-09-07T07:46:41;23.70;77.40
15656;DHT22;7928;43.614;1.456;2023-09-07T07:49:08;23.80;77.40
15656;DHT22;7928;43.614;1.456;2023-09-07T07:51:36;23.90;77.40
15656;DHT22;7928;43.614;1.456;2023-09-07T07:54:04;24.10;77.10
15656;DHT22;7928;43.614;1.456;2023-09-07T07:56:30;24.20;77.00
15656;DHT22;7928;43.614;1.456;2023-09-07T07:58:59;24.20;76.20
15656;DHT22;7928;43.614;1.456;2023-09-07T08:01:26;24.30;75.90
15656;DHT22;7928;43.614;1.456;2023-09-07T08:03:55;24.40;75.60
15656;DHT22;7928;43.614;1.456;2023-09-07T08:06:22;24.40;75.40
15656;DHT22;7928;43.614;1.456;2023-09-07T08:08:49;24.50;75.30
15656;DHT22;7928;43.614;1.456;2023-09-07T08:11:16;24.70;75.50
15656;DHT22;7928;43.614;1.456;2023-09-07T08:13:46;24.70;74.90
15656;DHT22;7928;43.614;1.456;2023-09-07T08:16:15;24.80;74.80
15656;DHT22;7928;43.614;1.456;2023-09-07T08:18:43;24.90;74.80
15656;DHT22;7928;43.614;1.456;2023-09-07T08:21:10;25.00;75.00
15656;DHT22;7928;43.614;1.456;2023-09-07T08:23:37;25.20;74.40
15656;DHT22;7928;43.614;1.456;2023-09-07T08:26:05;25.20;74.10
15656;DHT22;7928;43.614;1.456;2023-09-07T08:28:32;25.30;73.70
15656;DHT22;7928;43.614;1.456;2023-09-07T08:30:59;25.30;73.10
15656;DHT22;7928;43.614;1.456;2023-09-07T08:33:28;25.40;72.50
15656;DHT22;7928;43.614;1.456;2023-09-07T08:35:56;25.50;72.80
15656;DHT22;7928;43.614;1.456;2023-09-07T08:38:25;25.60;72.50
15656;DHT22;7928;43.614;1.456;2023-09-07T08:40:53;25.70;72.30
15656;DHT22;7928;43.614;1.456;2023-09-07T08:43:21;25.80;72.90
15656;DHT22;7928;43.614;1.456;2023-09-07T08:45:51;25.90;71.50
15656;DHT22;7928;43.614;1.456;2023-09-07T08:48:24;25.90;71.30
15656;DHT22;7928;43.614;1.456;2023-09-07T08:50:54;26.10;71.00
15656;DHT22;7928;43.614;1.456;2023-09-07T08:53:22;26.10;71.30
15656;DHT22;7928;43.614;1.456;2023-09-07T08:55:50;26.20;71.40
15656;DHT22;7928;43.614;1.456;2023-09-07T08:58:17;26.30;70.50
15656;DHT22;7928;43.614;1.456;2023-09-07T09:00:44;26.40;70.70
15656;DHT22;7928;43.614;1.456;2023-09-07T09:03:11;26.40;70.60
15656;DHT22;7928;43.614;1.456;2023-09-07T09:05:39;26.50;71.10
15656;DHT22;7928;43.614;1.456;2023-09-07T09:08:08;26.50;70.20
15656;DHT22;7928;43.614;1.456;2023-09-07T09:10:38;26.50;70.50
15656;DHT22;7928;43.614;1.456;2023-09-07T09:13:05;26.70;70.50
15656;DHT22;7928;43.614;1.456;2023-09-07T09:15:32;26.90;70.90
15656;DHT22;7928;43.614;1.456;2023-09-07T09:18:09;26.90;70.10
15656;DHT22;7928;43.614;1.456;2023-09-07T09:20:37;27.00;70.10
15656;DHT22;7928;43.614;1.456;2023-09-07T09:23:05;27.20;70.20
15656;DHT22;7928;43.614;1.456;2023-09-07T09:25:34;27.30;69.80
15656;DHT22;7928;43.614;1.456;2023-09-07T09:28:01;27.30;69.70
15656;DHT22;7928;43.614;1.456;2023-09-07T09:30:29;27.60;69.70
15656;DHT22;7928;43.614;1.456;2023-09-07T09:32:56;27.70;68.90
15656;DHT22;7928;43.614;1.456;2023-09-07T09:35:23;27.70;68.50
15656;DHT22;7928;43.614;1.456;2023-09-07T09:37:50;27.90;68.40
15656;DHT22;7928;43.614;1.456;2023-09-07T09:40:18;28.00;68.40
15656;DHT22;7928;43.614;1.456;2023-09-07T09:42:46;28.20;68.40
15656;DHT22;7928;43.614;1.456;2023-09-07T09:45:15;28.30;68.10
15656;DHT22;7928;43.614;1.456;2023-09-07T09:47:42;28.30;68.10
15656;DHT22;7928;43.614;1.456;2023-09-07T09:50:10;28.50;67.90
15656;DHT22;7928;43.614;1.456;2023-09-07T09:52:38;28.50;67.80
15656;DHT22;7928;43.614;1.456;2023-09-07T09:55:06;28.50;67.40
15656;DHT22;7928;43.614;1.456;2023-09-07T09:57:38;28.50;67.70
15656;DHT22;7928;43.614;1.456;2023-09-07T10:00:08;28.60;67.00
15656;DHT22;7928;43.614;1.456;2023-09-07T10:02:55;28.80;67.80
15656;DHT22;7928;43.614;1.456;2023-09-07T10:05:25;28.80;67.60
15656;DHT22;7928;43.614;1.456;2023-09-07T10:07:52;28.70;67.70
15656;DHT22;7928;43.614;1.456;2023-09-07T10:10:20;28.80;67.90
15656;DHT22;7928;43.614;1.456;2023-09-07T10:12:52;29.10;67.30
15656;DHT22;7928;43.614;1.456;2023-09-07T10:15:22;29.30;66.80
15656;DHT22;7928;43.614;1.456;2023-09-07T10:17:49;29.60;67.10
15656;DHT22;7928;43.614;1.456;2023-09-07T10:20:19;30.00;66.30
15656;DHT22;7928;43.614;1.456;2023-09-07T10:22:48;30.30;65.90
15656;DHT22;7928;43.614;1.456;2023-09-07T10:25:22;30.30;66.20
15656;DHT22;7928;43.614;1.456;2023-09-07T10:27:49;30.60;66.00
15656;DHT22;7928;43.614;1.456;2023-09-07T10:30:16;31.00;65.70
15656;DHT22;7928;43.614;1.456;2023-09-07T10:32:50;31.10;65.00
15656;DHT22;7928;43.614;1.456;2023-09-07T10:35:19;30.90;64.80
15656;DHT22;7928;43.614;1.456;2023-09-07T10:37:48;31.60;63.70
15656;DHT22;7928;43.614;1.456;2023-09-07T10:40:19;32.10;63.20
15656;DHT22;7928;43.614;1.456;2023-09-07T10:42:47;32.10;62.80
15656;DHT22;7928;43.614;1.456;2023-09-07T10:45:15;32.60;62.20
15656;DHT22;7928;43.614;1.456;2023-09-07T10:47:42;32.90;61.80
15656;DHT22;7928;43.614;1.456;2023-09-07T10:50:13;33.60;61.90
15656;DHT22;7928;43.614;1.456;2023-09-07T10:52:40;33.70;61.60
15656;DHT22;7928;43.614;1.456;2023-09-07T10:55:08;33.60;61.00
15656;DHT22;7928;43.614;1.456;2023-09-07T10:57:43;33.40;61.30
15656;DHT22;7928;43.614;1.456;2023-09-07T11:00:11;33.30;62.60
15656;DHT22;7928;43.614;1.456;2023-09-07T11:02:39;33.30;62.30
15656;DHT22;7928;43.614;1.456;2023-09-07T11:05:07;33.30;61.80
15656;DHT22;7928;43.614;1.456;2023-09-07T11:07:37;33.90;62.10
15656;DHT22;7928;43.614;1.456;2023-09-07T11:10:07;34.10;61.40
15656;DHT22;7928;43.614;1.456;2023-09-07T11:12:37;34.40;60.90
15656;DHT22;7928;43.614;1.456;2023-09-07T11:15:07;34.90;60.60
15656;DHT22;7928;43.614;1.456;2023-09-07T11:17:37;35.40;59.70
15656;DHT22;7928;43.614;1.456;2023-09-07T11:20:05;35.30;59.50
15656;DHT22;7928;43.614;1.456;2023-09-07T11:22:33;35.20;60.30
15656;DHT22;7928;43.614;1.456;2023-09-07T11:25:02;35.70;59.60
15656;DHT22;7928;43.614;1.456;2023-09-07T11:27:29;36.10;59.20
15656;DHT22;7928;43.614;1.456;2023-09-07T11:29:56;36.40;58.90
15656;DHT22;7928;43.614;1.456;2023-09-07T11:32:24;36.20;58.40
15656;DHT22;7928;43.614;1.456;2023-09-07T11:34:52;35.90;58.70
15656;DHT22;7928;43.614;1.456;2023-09-07T11:37:23;35.60;58.90
15656;DHT22;7928;43.614;1.456;2023-09-07T11:39:51;35.50;59.50
15656;DHT22;7928;43.614;1.456;2023-09-07T11:42:19;36.30;58.80
15656;DHT22;7928;43.614;1.456;2023-09-07T11:44:46;36.70;58.70
15656;DHT22;7928;43.614;1.456;2023-09-07T11:47:13;37.30;57.90
15656;DHT22;7928;43.614;1.456;2023-09-07T11:49:41;36.40;57.60
15656;DHT22;7928;43.614;1.456;2023-09-07T11:52:08;36.30;58.10
15656;DHT22;7928;43.614;1.456;2023-09-07T11:54:35;36.20;58.60
15656;DHT22;7928;43.614;1.456;2023-09-07T11:57:03;36.60;58.50
15656;DHT22;7928;43.614;1.456;2023-09-07T11:59:31;37.10;58.00
15656;DHT22;7928;43.614;1.456;2023-09-07T12:01:59;37.40;57.50
15656;DHT22;7928;43.614;1.456;2023-09-07T12:04:26;36.90;57.20
15656;DHT22;7928;43.614;1.456;2023-09-07T12:06:53;37.80;57.10
15656;DHT22;7928;43.614;1.456;2023-09-07T12:09:20;37.60;56.90
15656;DHT22;7928;43.614;1.456;2023-09-07T12:11:47;38.20;56.40
15656;DHT22;7928;43.614;1.456;2023-09-07T12:14:14;38.60;56.30
15656;DHT22;7928;43.614;1.456;2023-09-07T12:16:42;38.70;55.70
15656;DHT22;7928;43.614;1.456;2023-09-07T12:19:09;38.70;55.50
15656;DHT22;7928;43.614;1.456;2023-09-07T12:21:36;37.90;56.00
15656;DHT22;7928;43.614;1.456;2023-09-07T12:24:04;38.50;56.00
15656;DHT22;7928;43.614;1.456;2023-09-07T12:26:31;38.50;56.00
15656;DHT22;7928;43.614;1.456;2023-09-07T12:28:58;38.70;56.50
15656;DHT22;7928;43.614;1.456;2023-09-07T12:31:25;38.50;55.10
15656;DHT22;7928;43.614;1.456;2023-09-07T12:33:54;39.00;55.40
15656;DHT22;7928;43.614;1.456;2023-09-07T12:36:21;40.10;54.60
15656;DHT22;7928;43.614;1.456;2023-09-07T12:38:48;39.40;54.60
15656;DHT22;7928;43.614;1.456;2023-09-07T12:41:15;40.10;55.00
15656;DHT22;7928;43.614;1.456;2023-09-07T12:43:42;39.50;54.70
15656;DHT22;7928;43.614;1.456;2023-09-07T12:46:09;40.20;54.80
15656;DHT22;7928;43.614;1.456;2023-09-07T12:48:36;41.50;53.40
15656;DHT22;7928;43.614;1.456;2023-09-07T12:51:04;39.60;52.90
15656;DHT22;7928;43.614;1.456;2023-09-07T12:53:31;39.10;53.40
15656;DHT22;7928;43.614;1.456;2023-09-07T12:55:58;39.90;53.30
15656;DHT22;7928;43.614;1.456;2023-09-07T12:58:27;39.30;53.10
15656;DHT22;7928;43.614;1.456;2023-09-07T13:00:53;39.70;53.30
15656;DHT22;7928;43.614;1.456;2023-09-07T13:03:20;40.00;53.40
15656;DHT22;7928;43.614;1.456;2023-09-07T13:05:48;40.00;53.40
15656;DHT22;7928;43.614;1.456;2023-09-07T13:08:16;39.50;52.60
15656;DHT22;7928;43.614;1.456;2023-09-07T13:10:43;39.50;53.10
15656;DHT22;7928;43.614;1.456;2023-09-07T13:13:10;39.30;53.00
15656;DHT22;7928;43.614;1.456;2023-09-07T13:15:37;39.80;52.10
15656;DHT22;7928;43.614;1.456;2023-09-07T13:18:04;39.60;52.70
15656;DHT22;7928;43.614;1.456;2023-09-07T13:20:31;39.70;53.00
15656;DHT22;7928;43.614;1.456;2023-09-07T13:22:58;39.80;53.50
15656;DHT22;7928;43.614;1.456;2023-09-07T13:25:27;40.00;52.70
15656;DHT22;7928;43.614;1.456;2023-09-07T13:27:54;41.30;52.50
15656;DHT22;7928;43.614;1.456;2023-09-07T13:30:21;42.10;51.20
15656;DHT22;7928;43.614;1.456;2023-09-07T13:32:48;42.60;51.00
15656;DHT22;7928;43.614;1.456;2023-09-07T13:35:16;42.30;50.20
15656;DHT22;7928;43.614;1.456;2023-09-07T13:37:43;41.90;50.80
15656;DHT22;7928;43.614;1.456;2023-09-07T13:40:10;41.50;51.00
15656;DHT22;7928;43.614;1.456;2023-09-07T13:42:40;41.10;51.30
15656;DHT22;7928;43.614;1.456;2023-09-07T13:45:09;40.70;50.60
15656;DHT22;7928;43.614;1.456;2023-09-07T13:47:36;41.20;51.00
15656;DHT22;7928;43.614;1.456;2023-09-07T13:50:03;41.90;50.00
15656;DHT22;7928;43.614;1.456;2023-09-07T13:52:30;41.50;50.10
15656;DHT22;7928;43.614;1.456;2023-09-07T13:54:57;41.60;50.10
15656;DHT22;7928;43.614;1.456;2023-09-07T13:57:24;42.00;50.20
15656;DHT22;7928;43.614;1.456;2023-09-07T13:59:53;43.00;49.20
15656;DHT22;7928;43.614;1.456;2023-09-07T14:02:20;43.20;49.30
15656;DHT22;7928;43.614;1.456;2023-09-07T14:04:47;43.20;48.60
15656;DHT22;7928;43.614;1.456;2023-09-07T14:07:15;43.30;48.20
15656;DHT22;7928;43.614;1.456;2023-09-07T14:09:42;43.80;48.10
15656;DHT22;7928;43.614;1.456;2023-09-07T14:12:09;43.60;48.40
15656;DHT22;7928;43.614;1.456;2023-09-07T14:14:38;43.50;47.60
15656;DHT22;7928;43.614;1.456;2023-09-07T14:17:06;43.50;47.70
15656;DHT22;7928;43.614;1.456;2023-09-07T14:19:34;43.70;47.90
15656;DHT22;7928;43.614;1.456;2023-09-07T14:22:01;43.60;47.70
15656;DHT22;7928;43.614;1.456;2023-09-07T14:24:28;42.00;47.70
15656;DHT22;7928;43.614;1.456;2023-09-07T14:26:55;41.20;47.90
15656;DHT22;7928;43.614;1.456;2023-09-07T14:29:22;40.80;48.50
15656;DHT22;7928;43.614;1.456;2023-09-07T14:31:49;40.80;48.50
15656;DHT22;7928;43.614;1.456;2023-09-07T14:34:17;41.60;47.40
15656;DHT22;7928;43.614;1.456;2023-09-07T14:36:44;41.60;47.70
15656;DHT22;7928;43.614;1.456;2023-09-07T14:39:11;41.90;48.10
15656;DHT22;7928;43.614;1.456;2023-09-07T14:41:38;42.00;47.40
15656;DHT22;7928;43.614;1.456;2023-09-07T14:44:05;42.00;47.50
15656;DHT22;7928;43.614;1.456;2023-09-07T14:46:32;42.50;47.40
15656;DHT22;7928;43.614;1.456;2023-09-07T14:48:59;42.70;47.00
15656;DHT22;7928;43.614;1.456;2023-09-07T14:51:28;42.90;46.70
15656;DHT22;7928;43.614;1.456;2023-09-07T14:53:55;42.90;46.90
15656;DHT22;7928;43.614;1.456;2023-09-07T14:56:22;42.50;47.00
15656;DHT22;7928;43.614;1.456;2023-09-07T14:58:49;41.50;46.10
15656;DHT22;7928;43.614;1.456;2023-09-07T15:01:16;41.50;46.70
15656;DHT22;7928;43.614;1.456;2023-09-07T15:03:43;42.20;46.80
15656;DHT22;7928;43.614;1.456;2023-09-07T15:06:10;41.50;46.60
15656;DHT22;7928;43.614;1.456;2023-09-07T15:08:39;41.80;46.80
15656;DHT22;7928;43.614;1.456;2023-09-07T15:11:06;41.90;46.50
15656;DHT22;7928;43.614;1.456;2023-09-07T15:13:33;42.00;46.60
15656;DHT22;7928;43.614;1.456;2023-09-07T15:16:00;42.30;46.10
15656;DHT22;7928;43.614;1.456;2023-09-07T15:18:27;42.00;46.10
15656;DHT22;7928;43.614;1.456;2023-09-07T15:20:54;41.40;46.10
15656;DHT22;7928;43.614;1.456;2023-09-07T15:23:22;42.20;46.60
15656;DHT22;7928;43.614;1.456;2023-09-07T15:25:50;41.90;46.00
15656;DHT22;7928;43.614;1.456;2023-09-07T15:28:18;40.80;45.70
15656;DHT22;7928;43.614;1.456;2023-09-07T15:30:45;40.50;46.50
15656;DHT22;7928;43.614;1.456;2023-09-07T15:33:11;40.60;46.50
15656;DHT22;7928;43.614;1.456;2023-09-07T15:35:38;41.00;46.70
15656;DHT22;7928;43.614;1.456;2023-09-07T15:38:05;41.30;46.40
15656;DHT22;7928;43.614;1.456;2023-09-07T15:40:32;40.90;46.30
15656;DHT22;7928;43.614;1.456;2023-09-07T15:43:01;40.80;46.30
15656;DHT22;7928;43.614;1.456;2023-09-07T15:45:28;41.10;46.50
15656;DHT22;7928;43.614;1.456;2023-09-07T15:47:55;40.40;46.40